Katowice International Airport

METAR EPKT TAF EPKT
2 °C
°C
-
°C
26m
Wiek
00:25:50
LT
23:25
UTC
0 ft

1.000

2.000

3.000

4.000

5.000

FEW 400
OVC 500
IFR
<?= Yii::t('app', 'Wind direction') ?> <?= Yii::t('app', 'of'); ?>
280°
07:15
Wschód słońca
100%
Wilgotność
Siła wiatru
Zamknięte/Śnieg
Zasięg wzroku na RWY
Stan RWY
Widzialność pionowa
Min. widoczność
CAVOK
Trend
Korekta
Raport specjalny
1007 hPa
QNH
METAR EPKT 032300Z 28016KT 9999 -RA FEW004 OVC005 02/02 Q1007
Lekki deszcz
3 kt
3 kt
00:00
IFR
15 kt
01:00
IFR
15 kt
02:00
IFR
15 kt
03:00
IFR
20 kt
04:00
IFR
20 kt
05:00
IFR
20 kt
06:00
IFR
20 kt
10 km+
Widoczność
500 ft
Sufit
16 kt
Wiatr
metar-taf.com/EPKT

Metar-Taf.com

Dekoder wizualny

My i strony trzecie śledzimy Twoje zachowanie internetowe na naszej stronie za pomocą plików cookie. Jeśli kontynuujesz, zakładamy, że zgadzasz się z naszymi polityka plików cookie.